createdAt,value
2022-07-28T00:00:05.703Z,28.80
2022-07-28T00:02:35.561Z,28.90
2022-07-28T00:05:03.608Z,28.90
2022-07-28T00:07:30.673Z,28.80
2022-07-28T00:10:00.520Z,28.80
2022-07-28T00:12:28.311Z,28.90
2022-07-28T00:14:55.658Z,28.90
2022-07-28T00:17:22.689Z,28.80
2022-07-28T00:19:50.709Z,28.80
2022-07-28T00:22:18.439Z,28.80
2022-07-28T00:24:45.543Z,28.80
2022-07-28T00:27:13.732Z,28.80
2022-07-28T00:29:49.338Z,28.80
2022-07-28T00:32:18.417Z,28.80
2022-07-28T00:34:45.502Z,28.80
2022-07-28T00:37:14.606Z,28.80
2022-07-28T00:39:42.899Z,28.80
2022-07-28T00:42:10.359Z,28.80
2022-07-28T00:44:39.095Z,28.80
2022-07-28T00:47:06.264Z,28.80
2022-07-28T00:49:33.475Z,28.70
2022-07-28T00:52:01.235Z,28.70
2022-07-28T00:54:28.249Z,28.70
2022-07-28T00:56:55.570Z,28.80
2022-07-28T00:59:22.520Z,28.70
2022-07-28T01:01:49.901Z,28.70
2022-07-28T01:04:21.490Z,28.70
2022-07-28T01:07:22.747Z,28.70
2022-07-28T01:10:19.057Z,28.70
2022-07-28T01:12:58.996Z,28.70
2022-07-28T01:15:44.091Z,28.70
2022-07-28T01:18:22.037Z,28.70
2022-07-28T01:20:59.161Z,28.70
2022-07-28T01:23:31.940Z,28.70
2022-07-28T01:26:33.003Z,28.70
2022-07-28T01:29:21.842Z,28.70
2022-07-28T01:32:25.797Z,28.70
2022-07-28T01:35:16.432Z,28.70
2022-07-28T01:37:53.656Z,28.70
2022-07-28T01:40:27.233Z,28.70
2022-07-28T01:43:00.386Z,28.70
2022-07-28T01:45:29.023Z,28.70
2022-07-28T01:48:00.262Z,28.60
2022-07-28T01:50:29.899Z,28.60
2022-07-28T01:52:59.170Z,28.60
2022-07-28T01:55:27.831Z,28.60
2022-07-28T01:57:57.402Z,28.60
2022-07-28T02:00:26.253Z,28.60
2022-07-28T02:02:57.125Z,28.60
2022-07-28T02:05:26.512Z,28.60
2022-07-28T02:07:55.313Z,28.60
2022-07-28T02:10:24.823Z,28.60
2022-07-28T02:12:54.855Z,28.60
2022-07-28T02:15:24.142Z,28.60
2022-07-28T02:17:54.595Z,28.60
2022-07-28T02:20:23.600Z,28.60
2022-07-28T02:22:53.181Z,28.50
2022-07-28T02:25:21.850Z,28.60
2022-07-28T02:28:03.838Z,28.50
2022-07-28T02:31:06.401Z,28.60
2022-07-28T02:33:59.825Z,28.60
2022-07-28T02:36:46.824Z,28.50
2022-07-28T02:39:25.644Z,28.50
2022-07-28T02:42:04.238Z,28.50
2022-07-28T02:44:41.240Z,28.50
2022-07-28T02:47:12.489Z,28.50
2022-07-28T02:49:41.859Z,28.50
2022-07-28T02:52:12.513Z,28.50
2022-07-28T02:54:41.977Z,28.50
2022-07-28T02:57:12.546Z,28.50
2022-07-28T02:59:41.447Z,28.40
2022-07-28T03:02:10.166Z,28.40
2022-07-28T03:04:58.789Z,28.50
2022-07-28T03:07:30.678Z,28.40
2022-07-28T03:09:58.862Z,28.40
2022-07-28T03:12:27.092Z,28.40
2022-07-28T03:14:54.257Z,28.40
2022-07-28T03:17:22.557Z,28.40
2022-07-28T03:19:49.753Z,28.40
2022-07-28T03:22:17.565Z,28.40
2022-07-28T03:24:51.900Z,28.40
2022-07-28T03:27:26.510Z,28.40
2022-07-28T03:30:04.580Z,28.40
2022-07-28T03:32:35.167Z,28.40
2022-07-28T03:35:03.828Z,28.40
2022-07-28T03:37:42.211Z,28.40
2022-07-28T03:40:13.006Z,28.40
2022-07-28T03:42:45.184Z,28.40
2022-07-28T03:45:12.583Z,28.30
2022-07-28T03:47:48.260Z,28.30
2022-07-28T03:50:15.265Z,28.40
2022-07-28T03:52:42.237Z,28.30
2022-07-28T03:55:11.597Z,28.30
2022-07-28T03:57:38.443Z,28.30
2022-07-28T04:00:09.709Z,28.30
2022-07-28T04:02:37.719Z,28.30
2022-07-28T04:05:05.254Z,28.30
2022-07-28T04:07:32.247Z,28.30
2022-07-28T04:09:59.383Z,28.30
2022-07-28T04:12:26.354Z,28.30
2022-07-28T04:14:53.260Z,28.30
2022-07-28T04:17:20.289Z,28.30
2022-07-28T04:19:47.185Z,28.30
2022-07-28T04:22:14.091Z,28.30
2022-07-28T04:24:41.010Z,28.30
2022-07-28T04:27:08.486Z,28.30
2022-07-28T04:29:35.415Z,28.30
2022-07-28T04:32:02.418Z,28.30
2022-07-28T04:34:29.339Z,28.30
2022-07-28T04:36:56.499Z,28.20
2022-07-28T04:39:24.914Z,28.20
2022-07-28T04:41:52.394Z,28.20
2022-07-28T04:44:20.009Z,28.20
2022-07-28T04:46:47.107Z,28.20
2022-07-28T04:49:14.206Z,28.20
2022-07-28T04:51:41.163Z,28.20
2022-07-28T04:54:08.035Z,28.20
2022-07-28T04:56:34.964Z,28.20
2022-07-28T04:59:01.981Z,28.20
2022-07-28T05:01:30.943Z,28.20
2022-07-28T05:03:57.952Z,28.20
2022-07-28T05:06:24.848Z,28.20
2022-07-28T05:08:51.803Z,28.20
2022-07-28T05:11:18.701Z,28.20
2022-07-28T05:13:45.712Z,28.20
2022-07-28T05:16:12.698Z,28.20
2022-07-28T05:18:39.665Z,28.20
2022-07-28T05:21:06.682Z,28.20
2022-07-28T05:23:33.631Z,28.20
2022-07-28T05:26:00.558Z,28.20
2022-07-28T05:28:27.554Z,28.20
2022-07-28T05:30:54.545Z,28.20
2022-07-28T05:33:21.766Z,28.20
2022-07-28T05:35:59.901Z,28.20
2022-07-28T05:38:27.819Z,28.20
2022-07-28T05:40:54.979Z,28.20
2022-07-28T05:43:22.423Z,28.10
2022-07-28T05:45:49.644Z,28.20
2022-07-28T05:48:21.879Z,28.20
2022-07-28T05:50:51.152Z,28.20
2022-07-28T05:53:19.402Z,28.10
2022-07-28T05:56:00.560Z,28.20
2022-07-28T05:58:29.806Z,28.20
2022-07-28T06:01:01.431Z,28.20
2022-07-28T06:03:32.587Z,28.20
2022-07-28T06:06:14.355Z,28.20
2022-07-28T06:08:42.430Z,28.20
2022-07-28T06:11:09.868Z,28.20
2022-07-28T06:13:39.285Z,28.20
2022-07-28T06:16:11.160Z,28.20
2022-07-28T06:18:40.405Z,28.20
2022-07-28T06:21:07.443Z,28.20
2022-07-28T06:23:34.507Z,28.20
2022-07-28T06:26:01.536Z,28.20
2022-07-28T06:28:28.592Z,28.20
2022-07-28T06:30:55.512Z,28.30
2022-07-28T06:33:22.454Z,28.30
2022-07-28T06:35:51.436Z,28.20
2022-07-28T06:38:20.494Z,28.30
2022-07-28T06:40:48.839Z,28.30
2022-07-28T06:43:15.793Z,28.30
2022-07-28T06:45:44.954Z,28.30
2022-07-28T06:48:13.704Z,28.30
2022-07-28T06:50:42.315Z,28.30
2022-07-28T06:53:09.415Z,28.30
2022-07-28T06:55:37.853Z,28.30
2022-07-28T06:58:05.163Z,28.30
2022-07-28T07:00:32.757Z,28.30
2022-07-28T07:03:00.864Z,28.30
2022-07-28T07:05:32.103Z,28.30
2022-07-28T07:07:59.847Z,28.30
2022-07-28T07:10:27.536Z,28.30
2022-07-28T07:12:54.633Z,28.30
2022-07-28T07:15:22.149Z,28.30
2022-07-28T07:17:49.064Z,28.30
2022-07-28T07:20:17.276Z,28.30
2022-07-28T07:22:47.051Z,28.30
2022-07-28T07:25:19.183Z,28.30
2022-07-28T07:27:46.960Z,28.30
2022-07-28T07:30:15.880Z,28.30
2022-07-28T07:32:44.190Z,28.40
2022-07-28T07:35:13.838Z,28.40
2022-07-28T07:37:41.640Z,28.40
2022-07-28T07:40:09.830Z,28.40
2022-07-28T07:42:37.580Z,28.40
2022-07-28T07:45:05.308Z,28.40
2022-07-28T07:47:32.323Z,28.50
2022-07-28T07:50:03.935Z,28.50
2022-07-28T07:52:31.651Z,28.50
2022-07-28T07:54:58.640Z,28.50
2022-07-28T07:57:25.612Z,28.50
2022-07-28T07:59:52.692Z,28.50
2022-07-28T08:02:19.633Z,28.50
2022-07-28T08:04:46.717Z,28.60
2022-07-28T08:07:14.809Z,28.60
2022-07-28T08:09:41.774Z,28.50
2022-07-28T08:12:09.507Z,28.60
2022-07-28T08:14:36.414Z,28.60
2022-07-28T08:17:03.374Z,28.60
2022-07-28T08:19:30.365Z,28.60
2022-07-28T08:21:57.376Z,28.60
2022-07-28T08:24:32.588Z,28.60
2022-07-28T08:27:04.581Z,28.70
2022-07-28T08:29:31.718Z,28.70
2022-07-28T08:31:59.048Z,28.70
2022-07-28T08:34:31.490Z,28.70
2022-07-28T08:37:03.792Z,28.70
2022-07-28T08:39:33.875Z,28.70
2022-07-28T08:42:17.633Z,28.70
2022-07-28T08:45:12.119Z,28.70
2022-07-28T08:48:06.268Z,28.70
2022-07-28T08:50:31.796Z,28.70
2022-07-28T08:53:00.198Z,28.80
2022-07-28T08:55:31.290Z,28.70
2022-07-28T08:58:00.497Z,28.70
2022-07-28T09:00:28.207Z,28.70
2022-07-28T09:02:56.140Z,28.70
2022-07-28T09:05:25.710Z,28.70
2022-07-28T09:07:57.690Z,28.70
2022-07-28T09:10:24.797Z,28.70
2022-07-28T09:12:52.093Z,28.80
2022-07-28T09:15:19.292Z,28.80
2022-07-28T09:17:46.342Z,28.70
2022-07-28T09:20:13.872Z,28.70
2022-07-28T09:22:58.646Z,28.80
2022-07-28T09:25:26.927Z,28.30
2022-07-28T09:27:54.965Z,28.80
2022-07-28T09:30:34.417Z,28.80
2022-07-28T09:33:43.248Z,28.80
2022-07-28T09:36:16.078Z,28.80
2022-07-28T09:38:43.620Z,28.80
2022-07-28T09:41:11.563Z,28.80
2022-07-28T09:43:42.442Z,28.80
2022-07-28T09:46:24.019Z,28.80
2022-07-28T09:48:57.757Z,28.80
2022-07-28T09:51:33.515Z,28.80
2022-07-28T09:54:13.980Z,28.80
2022-07-28T09:56:45.192Z,28.80
2022-07-28T09:59:14.669Z,28.80
2022-07-28T10:01:59.190Z,28.80
2022-07-28T10:04:41.892Z,28.80
2022-07-28T10:07:15.803Z,28.80
2022-07-28T10:09:43.713Z,28.80
2022-07-28T10:12:24.914Z,28.80
2022-07-28T10:14:59.505Z,28.80
2022-07-28T10:17:33.210Z,28.90
2022-07-28T10:20:05.307Z,28.80
2022-07-28T10:22:42.874Z,28.80
2022-07-28T10:25:14.562Z,28.90
2022-07-28T10:27:44.038Z,28.90
2022-07-28T10:30:12.874Z,28.90
2022-07-28T10:32:46.017Z,28.90
2022-07-28T10:35:16.483Z,28.90
2022-07-28T10:38:13.994Z,28.90
2022-07-28T10:40:45.516Z,29.00
2022-07-28T10:43:13.686Z,28.90
2022-07-28T10:46:04.537Z,28.90
2022-07-28T10:48:28.472Z,29.00
2022-07-28T10:50:59.329Z,29.00
2022-07-28T10:54:03.675Z,29.00
2022-07-28T10:56:52.833Z,29.10
2022-07-28T11:00:12.247Z,29.10
2022-07-28T11:02:47.054Z,29.10
2022-07-28T11:05:37.121Z,29.30
2022-07-28T11:08:14.945Z,29.20
2022-07-28T11:10:53.463Z,29.20
2022-07-28T11:13:37.008Z,29.30
2022-07-28T11:16:14.623Z,29.30
2022-07-28T11:19:39.978Z,29.30
2022-07-28T11:22:22.283Z,29.40
2022-07-28T11:25:19.062Z,29.50
2022-07-28T11:27:51.913Z,29.50
2022-07-28T11:30:19.679Z,29.50
2022-07-28T11:32:55.374Z,29.60
2022-07-28T11:35:31.079Z,29.80
2022-07-28T11:38:01.256Z,30.00
2022-07-28T11:40:48.224Z,30.20
2022-07-28T11:43:22.316Z,30.40
2022-07-28T11:46:14.776Z,30.50
2022-07-28T11:48:47.825Z,30.70
2022-07-28T11:51:15.866Z,30.90
2022-07-28T11:53:55.659Z,31.00
2022-07-28T11:56:37.260Z,31.10
2022-07-28T11:59:07.894Z,31.20
2022-07-28T12:01:38.525Z,31.30
2022-07-28T12:04:15.753Z,31.40
2022-07-28T12:06:51.091Z,31.50
2022-07-28T12:09:23.499Z,31.60
2022-07-28T12:11:55.386Z,31.70
2022-07-28T12:14:22.769Z,31.80
2022-07-28T12:16:55.105Z,31.90
2022-07-28T12:19:23.534Z,31.90
2022-07-28T12:22:00.077Z,32.00
2022-07-28T12:24:44.714Z,32.00
2022-07-28T12:27:16.826Z,32.00
2022-07-28T12:29:55.305Z,32.10
2022-07-28T12:32:35.357Z,32.10
2022-07-28T12:35:06.009Z,32.10
2022-07-28T12:37:33.067Z,32.00
2022-07-28T12:40:02.515Z,32.00
2022-07-28T12:42:32.306Z,32.00
2022-07-28T12:45:07.522Z,31.90
2022-07-28T12:47:34.685Z,31.90
2022-07-28T12:50:20.142Z,31.90
2022-07-28T12:53:10.450Z,31.90
2022-07-28T12:55:39.945Z,31.90
2022-07-28T12:58:07.910Z,31.90
2022-07-28T13:00:36.679Z,31.90
2022-07-28T13:03:27.314Z,31.90
2022-07-28T13:06:02.883Z,32.00
2022-07-28T13:08:45.772Z,32.00
2022-07-28T13:11:43.407Z,32.10
2022-07-28T13:14:03.746Z,32.10
2022-07-28T13:16:31.792Z,32.20
2022-07-28T13:19:04.152Z,32.20
2022-07-28T13:21:56.996Z,32.30
2022-07-28T13:24:28.513Z,32.30
2022-07-28T13:26:56.912Z,32.40
2022-07-28T13:29:27.189Z,32.40
2022-07-28T13:31:57.153Z,32.40
2022-07-28T13:34:24.214Z,32.40
2022-07-28T13:36:52.701Z,32.40
2022-07-28T13:39:19.904Z,32.30
2022-07-28T13:41:56.870Z,32.30
2022-07-28T13:44:30.380Z,32.20
2022-07-28T13:46:59.355Z,32.10
2022-07-28T13:49:28.532Z,32.10
2022-07-28T13:51:56.016Z,32.00
2022-07-28T13:54:24.646Z,31.90
2022-07-28T13:57:16.438Z,31.80
2022-07-28T13:59:45.710Z,31.60
2022-07-28T14:02:15.414Z,31.60
2022-07-28T14:04:45.999Z,31.40
2022-07-28T14:07:20.901Z,31.40
2022-07-28T14:09:50.655Z,31.30
2022-07-28T14:12:18.449Z,31.20
2022-07-28T14:14:47.938Z,31.10
2022-07-28T14:17:42.939Z,31.00
2022-07-28T14:20:10.635Z,31.00
2022-07-28T14:22:37.627Z,30.90
2022-07-28T14:25:05.100Z,30.80
2022-07-28T14:27:32.655Z,30.80
2022-07-28T14:29:59.734Z,30.70
2022-07-28T14:32:31.443Z,30.70
2022-07-28T14:34:58.519Z,30.60
2022-07-28T14:37:25.675Z,30.50
2022-07-28T14:39:52.785Z,30.50
2022-07-28T14:42:19.832Z,30.50
2022-07-28T14:44:46.835Z,30.40
2022-07-28T14:47:15.266Z,30.40
2022-07-28T14:49:57.854Z,30.40
2022-07-28T14:52:27.237Z,30.40
2022-07-28T14:54:57.817Z,30.30
2022-07-28T14:57:45.884Z,30.30
2022-07-28T15:00:17.002Z,30.30
2022-07-28T15:02:44.394Z,30.30
2022-07-28T15:05:13.162Z,30.30
2022-07-28T15:07:42.054Z,30.20
2022-07-28T15:10:12.425Z,30.20
2022-07-28T15:12:39.565Z,30.20
2022-07-28T15:15:07.810Z,30.20
2022-07-28T15:17:35.759Z,30.20
2022-07-28T15:20:05.854Z,30.20
2022-07-28T15:22:34.134Z,30.20
2022-07-28T15:25:01.184Z,30.20
2022-07-28T15:27:33.282Z,30.10
2022-07-28T15:30:01.318Z,30.10
2022-07-28T15:32:31.700Z,30.10
2022-07-28T15:34:59.436Z,30.10
2022-07-28T15:37:28.050Z,30.00
2022-07-28T15:39:55.211Z,30.10
2022-07-28T15:42:22.254Z,30.10
2022-07-28T15:44:49.278Z,30.00
2022-07-28T15:47:16.542Z,30.00
2022-07-28T15:49:43.482Z,30.00
2022-07-28T15:52:10.552Z,30.00
2022-07-28T15:54:37.475Z,30.00
2022-07-28T15:57:04.625Z,30.00
2022-07-28T15:59:49.476Z,30.00
2022-07-28T16:02:18.797Z,30.00
2022-07-28T16:04:52.176Z,29.90
2022-07-28T16:07:24.561Z,29.90
2022-07-28T16:09:57.453Z,29.90
2022-07-28T16:12:25.603Z,29.90
2022-07-28T16:14:56.624Z,29.90
2022-07-28T16:17:24.563Z,29.90
2022-07-28T16:19:52.208Z,29.90
2022-07-28T16:22:22.513Z,29.90
2022-07-28T16:24:50.777Z,30.00
2022-07-28T16:27:18.505Z,29.90
2022-07-28T16:29:45.726Z,29.90
2022-07-28T16:32:13.008Z,29.90
2022-07-28T16:34:39.931Z,30.10
2022-07-28T16:37:06.949Z,29.90
2022-07-28T16:39:34.992Z,29.90
2022-07-28T16:42:03.279Z,29.90
2022-07-28T16:44:31.143Z,30.00
2022-07-28T16:46:58.933Z,30.00
2022-07-28T16:49:26.014Z,30.00
2022-07-28T16:51:54.544Z,30.00
2022-07-28T16:54:22.206Z,30.00
2022-07-28T16:56:49.243Z,30.00
2022-07-28T16:59:16.138Z,30.00
2022-07-28T17:01:46.283Z,30.00
2022-07-28T17:04:18.645Z,30.00
2022-07-28T17:06:47.756Z,30.00
2022-07-28T17:09:16.185Z,30.00
2022-07-28T17:11:43.886Z,30.00
2022-07-28T17:14:12.732Z,30.00
2022-07-28T17:16:40.004Z,30.00
2022-07-28T17:19:06.987Z,30.00
2022-07-28T17:21:35.966Z,30.00
2022-07-28T17:24:03.785Z,30.00
2022-07-28T17:29:19.133Z,30.10
2022-07-28T17:31:46.253Z,30.00
2022-07-28T17:34:13.723Z,30.00
2022-07-28T17:36:42.153Z,30.00
2022-07-28T17:39:09.312Z,29.90
2022-07-28T17:41:36.387Z,30.00
2022-07-28T17:44:03.530Z,30.00
2022-07-28T17:46:30.595Z,30.00
2022-07-28T17:48:59.163Z,30.00
2022-07-28T17:51:27.623Z,30.00
2022-07-28T17:53:54.853Z,30.00
2022-07-28T17:56:22.954Z,30.00
2022-07-28T17:58:49.994Z,30.00
2022-07-28T18:01:17.234Z,30.00
2022-07-28T18:03:56.511Z,30.00
2022-07-28T18:06:25.633Z,30.00
2022-07-28T18:08:52.686Z,30.00
2022-07-28T18:11:19.605Z,30.00
2022-07-28T18:14:05.034Z,30.00
2022-07-28T18:16:34.505Z,30.00
2022-07-28T18:19:04.854Z,30.00
2022-07-28T18:21:32.081Z,30.00
2022-07-28T18:24:02.098Z,30.00
2022-07-28T18:26:29.094Z,30.00
2022-07-28T18:28:56.009Z,30.00
2022-07-28T18:31:23.112Z,30.00
2022-07-28T18:33:50.075Z,30.00
2022-07-28T18:36:17.050Z,30.00
2022-07-28T18:38:43.965Z,29.90
2022-07-28T18:41:10.970Z,30.00
2022-07-28T18:43:37.926Z,29.90
2022-07-28T18:46:05.379Z,29.90
2022-07-28T18:48:32.470Z,29.90
2022-07-28T18:50:59.441Z,29.90
2022-07-28T18:53:26.761Z,29.90
2022-07-28T18:55:53.916Z,29.90
2022-07-28T18:58:20.997Z,29.90
2022-07-28T19:00:48.481Z,29.90
2022-07-28T19:03:15.568Z,29.90
2022-07-28T19:05:45.930Z,29.90
2022-07-28T19:08:13.721Z,29.90
2022-07-28T19:10:40.757Z,29.90
2022-07-28T19:13:09.100Z,29.90
2022-07-28T19:15:39.871Z,29.90
2022-07-28T19:18:11.506Z,29.90
2022-07-28T19:20:44.810Z,29.90
2022-07-28T19:23:11.889Z,29.90
2022-07-28T19:25:39.900Z,29.80
2022-07-28T19:28:07.301Z,29.90
2022-07-28T19:30:35.116Z,29.80
2022-07-28T19:33:04.075Z,29.80
2022-07-28T19:35:31.045Z,29.80
2022-07-28T19:38:00.346Z,29.80
2022-07-28T19:40:31.736Z,29.80
2022-07-28T19:42:59.977Z,29.80
2022-07-28T19:45:27.112Z,29.80
2022-07-28T19:47:54.735Z,29.80
2022-07-28T19:50:22.477Z,29.80
2022-07-28T19:52:49.862Z,29.80
2022-07-28T19:55:17.659Z,29.70
2022-07-28T19:57:48.034Z,29.70
2022-07-28T20:00:19.070Z,29.70
2022-07-28T20:02:46.269Z,29.70
2022-07-28T20:05:13.627Z,29.70
2022-07-28T20:07:40.584Z,29.70
2022-07-28T20:10:07.986Z,29.70
2022-07-28T20:12:36.965Z,29.70
2022-07-28T20:15:08.080Z,29.70
2022-07-28T20:17:38.870Z,29.70
2022-07-28T20:20:10.160Z,29.70
2022-07-28T20:22:41.041Z,29.80
2022-07-28T20:25:10.160Z,29.70
2022-07-28T20:27:40.201Z,29.80
2022-07-28T20:30:13.119Z,29.70
2022-07-28T20:32:42.347Z,29.70
2022-07-28T20:35:11.123Z,29.70
2022-07-28T20:37:38.818Z,29.70
2022-07-28T20:40:07.091Z,29.70
2022-07-28T20:42:34.905Z,29.70
2022-07-28T20:45:02.430Z,29.70
2022-07-28T20:47:32.798Z,29.70
2022-07-28T20:50:00.864Z,29.80
2022-07-28T20:52:27.849Z,29.70
2022-07-28T20:54:55.305Z,29.70
2022-07-28T20:57:23.348Z,29.70
2022-07-28T20:59:52.117Z,29.80
2022-07-28T21:02:21.091Z,29.70
2022-07-28T21:04:50.561Z,29.70
2022-07-28T21:07:59.534Z,29.70
2022-07-28T21:10:08.703Z,29.70
2022-07-28T21:12:37.191Z,29.80
2022-07-28T21:15:09.391Z,29.70
2022-07-28T21:17:36.963Z,29.80
2022-07-28T21:20:06.167Z,29.70
2022-07-28T21:22:33.156Z,29.70
2022-07-28T21:25:00.032Z,29.70
2022-07-28T21:27:26.918Z,29.70
2022-07-28T21:32:19.789Z,29.70
2022-07-28T21:34:46.754Z,29.70
2022-07-28T21:37:14.219Z,29.70
2022-07-28T21:39:41.362Z,29.70
2022-07-28T21:42:09.285Z,29.70
2022-07-28T21:44:37.892Z,29.70
2022-07-28T21:47:05.273Z,29.70
2022-07-28T21:49:32.565Z,29.70
2022-07-28T21:51:59.801Z,29.70
2022-07-28T21:54:27.136Z,29.70
2022-07-28T21:56:54.264Z,29.70
2022-07-28T21:59:21.176Z,29.70
2022-07-28T22:01:48.246Z,29.90
2022-07-28T22:04:15.934Z,29.70
2022-07-28T22:06:46.091Z,29.70
2022-07-28T22:09:15.027Z,29.70
2022-07-28T22:11:42.299Z,29.70
2022-07-28T22:14:10.197Z,29.70
2022-07-28T22:16:37.303Z,29.70
2022-07-28T22:19:04.483Z,29.70
2022-07-28T22:21:31.877Z,29.70
2022-07-28T22:23:58.820Z,29.70
2022-07-28T22:26:25.821Z,29.70
2022-07-28T22:28:52.765Z,29.70
2022-07-28T22:31:19.901Z,29.70
2022-07-28T22:33:46.866Z,29.70
2022-07-28T22:36:14.037Z,29.70
2022-07-28T22:38:41.238Z,29.60
2022-07-28T22:41:09.570Z,29.70
2022-07-28T22:43:37.241Z,29.70
2022-07-28T22:46:04.185Z,29.70
2022-07-28T22:48:31.142Z,29.60
2022-07-28T22:50:58.092Z,29.60
2022-07-28T22:53:25.016Z,29.70
2022-07-28T22:55:52.039Z,29.60
2022-07-28T22:58:19.003Z,29.60
2022-07-28T23:00:46.030Z,29.60
2022-07-28T23:03:16.124Z,29.60
2022-07-28T23:05:43.150Z,29.60
2022-07-28T23:08:10.637Z,29.60
2022-07-28T23:10:38.086Z,29.60
2022-07-28T23:13:05.150Z,29.60
2022-07-28T23:15:40.446Z,29.60
2022-07-28T23:18:10.595Z,29.60
2022-07-28T23:20:39.729Z,29.60
2022-07-28T23:23:07.349Z,29.60
2022-07-28T23:25:39.515Z,29.60
2022-07-28T23:28:07.608Z,29.60
2022-07-28T23:30:35.024Z,29.60
2022-07-28T23:33:02.155Z,29.60
2022-07-28T23:35:29.268Z,29.60
2022-07-28T23:37:56.306Z,29.60
2022-07-28T23:40:23.590Z,29.40
2022-07-28T23:42:50.572Z,29.50
2022-07-28T23:45:17.590Z,29.50
2022-07-28T23:47:44.549Z,29.60
2022-07-28T23:50:11.615Z,29.50
2022-07-28T23:52:38.512Z,29.50
2022-07-28T23:55:06.159Z,29.50
2022-07-28T23:57:33.163Z,29.50
